Time;durP1;ratioP1;P1;durP2;ratioP2;P2;SDS_P1;SDS_P2;PMS_P1;PMS_P2;Temp;Humidity;BMP_temperature;BMP_pressure;BME280_temperature;BME280_humidity;BME280_pressure;Samples;Min_cycle;Max_cycle;Signal;HPM_P1;HPM_P2
2021/11/08 00:01:40;;;;;;;0.80;0.50;;;7.40;99.90;;;;;;5054215;28;20251;-76
2021/11/08 00:04:09;;;;;;;0.90;0.60;;;7.40;99.90;;;;;;5055632;28;20188;-76
2021/11/08 00:06:37;;;;;;;0.80;0.50;;;7.30;99.90;;;;;;5054689;28;20193;-76
2021/11/08 00:09:06;;;;;;;1.35;1.25;;;7.30;99.90;;;;;;5056114;28;20173;-76
2021/11/08 00:11:35;;;;;;;0.80;0.50;;;7.30;99.90;;;;;;5056375;28;20216;-76
2021/11/08 00:14:03;;;;;;;0.80;0.50;;;7.30;99.90;;;;;;5036368;28;20200;-76
2021/11/08 00:16:37;;;;;;;0.90;0.57;;;7.30;99.90;;;;;;5053921;28;20511;-76
2021/11/08 00:19:23;;;;;;;0.80;0.50;;;7.30;99.90;;;;;;5053463;28;20547;-76
2021/11/08 00:21:52;;;;;;;0.80;0.50;;;7.30;99.90;;;;;;5054178;28;20212;-76
2021/11/08 00:24:24;;;;;;;0.80;0.50;;;7.40;99.90;;;;;;5052732;28;20405;-77
2021/11/08 00:26:52;;;;;;;0.90;0.60;;;7.40;99.90;;;;;;5054464;28;20535;-76
2021/11/08 00:29:20;;;;;;;0.80;0.50;;;7.30;99.90;;;;;;5054228;28;20250;-77
2021/11/08 00:31:48;;;;;;;0.80;0.50;;;7.30;99.90;;;;;;5036406;28;20227;-75
2021/11/08 00:34:18;;;;;;;0.80;0.50;;;7.30;99.90;;;;;;5053740;28;20251;-76
2021/11/08 00:36:50;;;;;;;2.38;1.67;;;7.30;99.90;;;;;;5035336;28;20193;-76
2021/11/08 00:39:19;;;;;;;0.80;0.50;;;7.30;99.90;;;;;;5053363;28;20297;-75
2021/11/08 00:41:47;;;;;;;0.80;0.50;;;7.30;99.90;;;;;;5053459;28;20213;-76
2021/11/08 00:44:15;;;;;;;0.80;0.50;;;7.20;99.90;;;;;;5053384;28;20189;-76
2021/11/08 00:46:43;;;;;;;1.02;0.93;;;7.20;99.90;;;;;;5053362;28;20704;-76
2021/11/08 00:49:12;;;;;;;0.80;0.40;;;7.30;99.90;;;;;;5053227;28;20204;-77
2021/11/08 00:51:45;;;;;;;0.80;0.50;;;7.30;99.90;;;;;;5053302;28;20216;-75
2021/11/08 00:54:14;;;;;;;3.17;0.68;;;7.30;99.90;;;;;;5035228;28;20521;-75
2021/11/08 00:56:46;;;;;;;0.90;0.60;;;7.30;99.90;;;;;;5053189;28;20189;-75
2021/11/08 00:59:16;;;;;;;0.80;0.50;;;7.40;99.90;;;;;;5053131;28;20204;-76
2021/11/08 01:01:47;;;;;;;0.80;0.50;;;7.40;99.90;;;;;;5052907;28;20279;-76
2021/11/08 01:04:20;;;;;;;0.80;0.40;;;7.40;99.90;;;;;;5052898;28;20189;-76
2021/11/08 01:06:51;;;;;;;0.80;0.50;;;7.40;99.90;;;;;;5052945;28;20193;-75
2021/11/08 01:09:20;;;;;;;0.80;0.50;;;7.50;99.90;;;;;;5053170;28;20667;-76
2021/11/08 01:11:48;;;;;;;0.80;0.40;;;7.50;99.90;;;;;;5069723;22;20242;-75
2021/11/08 01:14:17;;;;;;;0.90;0.65;;;7.50;99.90;;;;;;5073073;28;20188;-75
2021/11/08 01:16:46;;;;;;;0.80;0.60;;;7.50;99.90;;;;;;5055054;28;20286;-75
2021/11/08 01:19:14;;;;;;;0.80;0.50;;;7.50;99.90;;;;;;5072894;28;20200;-75
2021/11/08 01:21:42;;;;;;;0.80;0.50;;;7.50;99.90;;;;;;5077662;28;20223;-75
2021/11/08 01:24:13;;;;;;;0.80;0.50;;;7.50;99.90;;;;;;5073857;28;20195;-76
2021/11/08 01:26:41;;;;;;;0.80;0.50;;;7.50;99.90;;;;;;5073662;28;20267;-76
2021/11/08 01:29:11;;;;;;;0.80;0.50;;;7.50;99.90;;;;;;5073299;28;20613;-76
2021/11/08 01:31:39;;;;;;;0.80;0.50;;;7.60;99.90;;;;;;5073093;28;20580;-75
2021/11/08 01:34:07;;;;;;;1.25;1.15;;;7.50;99.90;;;;;;5073279;28;20215;-76
2021/11/08 01:36:37;;;;;;;0.80;0.50;;;7.50;99.90;;;;;;5073182;28;20176;-75
2021/11/08 01:39:14;;;;;;;2.85;2.35;;;7.50;99.90;;;;;;5055211;28;20220;-75
2021/11/08 01:41:46;;;;;;;0.80;0.50;;;7.60;99.90;;;;;;5073421;28;20207;-76
2021/11/08 01:44:15;;;;;;;0.80;0.50;;;7.60;99.90;;;;;;5072682;28;20183;-76
2021/11/08 01:46:44;;;;;;;0.80;0.50;;;7.60;99.90;;;;;;5072170;28;20192;-74
2021/11/08 01:49:12;;;;;;;0.90;0.63;;;7.50;99.90;;;;;;5072304;28;20519;-76
2021/11/08 01:51:40;;;;;;;0.80;0.50;;;7.50;99.90;;;;;;5072161;28;20279;-76
2021/11/08 01:54:09;;;;;;;0.80;0.50;;;7.50;99.90;;;;;;5072233;28;20188;-77
2021/11/08 01:56:38;;;;;;;0.80;0.50;;;7.50;99.90;;;;;;5072167;28;20172;-76
2021/11/08 01:59:07;;;;;;;0.80;0.50;;;7.50;99.90;;;;;;5072262;28;20218;-76
2021/11/08 02:01:38;;;;;;;0.80;0.40;;;7.50;99.90;;;;;;5071752;28;20761;-76
2021/11/08 02:04:07;;;;;;;0.80;0.40;;;7.50;99.90;;;;;;5053905;28;20250;-76
2021/11/08 02:06:35;;;;;;;0.80;0.40;;;7.50;99.90;;;;;;5071861;28;20573;-76
2021/11/08 02:09:04;;;;;;;0.80;0.40;;;7.60;99.90;;;;;;5071728;28;20180;-75
2021/11/08 02:11:33;;;;;;;0.80;0.40;;;7.60;99.90;;;;;;5071620;28;20216;-76
2021/11/08 02:14:01;;;;;;;1.55;0.88;;;7.60;99.90;;;;;;5071720;28;20246;-75
2021/11/08 02:16:31;;;;;;;0.80;0.40;;;7.60;99.90;;;;;;5054062;28;20184;-75
2021/11/08 02:19:02;;;;;;;0.80;0.50;;;7.70;99.90;;;;;;5072073;28;20672;-76
2021/11/08 02:21:32;;;;;;;3.28;3.08;;;7.60;99.90;;;;;;5071803;28;20208;-76
2021/11/08 02:24:02;;;;;;;0.80;0.50;;;7.70;99.90;;;;;;5071784;28;20667;-75
2021/11/08 02:26:31;;;;;;;0.80;0.50;;;7.60;99.90;;;;;;5071646;28;20168;-75
2021/11/08 02:28:59;;;;;;;0.80;0.50;;;7.60;99.90;;;;;;5071995;28;20677;-75
2021/11/08 02:31:30;;;;;;;0.80;0.40;;;7.60;99.90;;;;;;5071759;28;20220;-76
2021/11/08 02:33:58;;;;;;;0.80;0.50;;;7.60;99.90;;;;;;5053533;28;20249;-76
2021/11/08 02:36:26;;;;;;;0.80;0.47;;;7.50;99.90;;;;;;5071659;28;20259;-75
2021/11/08 02:38:57;;;;;;;0.80;0.50;;;7.50;99.90;;;;;;5053604;28;20219;-76
2021/11/08 02:41:26;;;;;;;0.90;0.70;;;7.60;99.90;;;;;;5071670;28;20587;-75
2021/11/08 02:44:00;;;;;;;0.90;0.50;;;7.60;99.90;;;;;;5075075;28;20191;-75
2021/11/08 02:46:28;;;;;;;0.80;0.50;;;7.60;99.90;;;;;;5075256;28;20646;-77
2021/11/08 02:48:58;;;;;;;0.80;0.50;;;7.60;99.90;;;;;;5075335;28;20208;-75
2021/11/08 02:51:28;;;;;;;0.80;0.50;;;7.70;99.90;;;;;;5075241;28;20212;-76
2021/11/08 02:54:02;;;;;;;0.90;0.60;;;7.60;99.90;;;;;;5075476;28;20180;-75
2021/11/08 02:56:30;;;;;;;0.80;0.40;;;7.60;99.90;;;;;;5076063;28;20184;-74
2021/11/08 02:58:59;;;;;;;0.80;0.40;;;7.60;99.90;;;;;;5076622;28;20271;-74
2021/11/08 03:01:28;;;;;;;0.80;0.40;;;7.60;99.90;;;;;;5080250;28;20266;-74
2021/11/08 03:03:57;;;;;;;0.80;0.40;;;7.60;99.90;;;;;;5085516;28;20204;-74
2021/11/08 03:06:30;;;;;;;0.80;0.50;;;7.60;99.90;;;;;;5087805;28;20230;-75
2021/11/08 03:09:08;;;;;;;0.80;0.47;;;7.60;99.90;;;;;;5087756;28;20177;-74
2021/11/08 03:11:36;;;;;;;0.80;0.50;;;7.50;99.90;;;;;;5087236;28;20696;-74
2021/11/08 03:14:06;;;;;;;0.80;0.50;;;7.50;99.90;;;;;;5089278;28;20188;-77
2021/11/08 03:16:40;;;;;;;0.80;0.40;;;7.50;99.90;;;;;;5070061;28;20219;-75
2021/11/08 03:19:18;;;;;;;1.05;0.60;;;7.50;99.90;;;;;;5085706;28;20199;-76
2021/11/08 03:21:47;;;;;;;0.80;0.50;;;7.50;99.90;;;;;;5084252;28;20215;-74
2021/11/08 03:24:21;;;;;;;0.80;0.50;;;7.50;99.90;;;;;;5084559;28;20203;-75
2021/11/08 03:26:51;;;;;;;0.80;0.50;;;7.50;99.90;;;;;;5085209;28;20511;-76
2021/11/08 03:29:19;;;;;;;0.80;0.40;;;7.50;99.90;;;;;;5086700;28;20176;-76
2021/11/08 03:31:50;;;;;;;0.80;0.50;;;7.50;99.90;;;;;;5090209;28;20204;-75
2021/11/08 03:34:19;;;;;;;0.80;0.50;;;7.50;99.90;;;;;;5090252;28;20180;-76
2021/11/08 03:36:50;;;;;;;0.90;0.60;;;7.50;99.90;;;;;;5091606;28;20183;-75
2021/11/08 03:39:19;;;;;;;0.90;0.60;;;7.50;99.90;;;;;;5093212;28;20200;-77
2021/11/08 03:41:48;;;;;;;0.80;0.50;;;7.50;99.90;;;;;;5088661;28;20208;-76
2021/11/08 03:44:16;;;;;;;0.80;0.40;;;7.50;99.90;;;;;;5085646;28;20203;-76
2021/11/08 03:46:44;;;;;;;0.80;0.50;;;7.50;99.90;;;;;;5081183;28;20196;-75
2021/11/08 03:49:12;;;;;;;0.80;0.50;;;7.50;99.90;;;;;;5079216;28;20184;-75
2021/11/08 03:51:40;;;;;;;0.80;0.50;;;7.50;99.90;;;;;;5079871;28;20642;-77
2021/11/08 03:54:08;;;;;;;1.58;0.55;;;7.60;99.90;;;;;;5075804;28;20623;-75
2021/11/08 03:56:38;;;;;;;1.33;0.98;;;7.60;99.90;;;;;;5074391;28;20180;-76
2021/11/08 03:59:06;;;;;;;0.80;0.50;;;7.60;99.90;;;;;;5074269;28;20710;-76
2021/11/08 04:01:36;;;;;;;0.90;0.65;;;7.60;99.90;;;;;;5073939;28;20211;-76
2021/11/08 04:04:05;;;;;;;1.13;0.60;;;7.60;99.90;;;;;;5074218;28;20183;-76
2021/11/08 04:06:34;;;;;;;0.90;0.70;;;7.60;99.90;;;;;;5073878;28;20172;-74
2021/11/08 04:09:07;;;;;;;0.80;0.40;;;7.70;99.90;;;;;;5073871;28;20268;-75
2021/11/08 04:11:35;;;;;;;1.10;0.60;;;7.70;99.90;;;;;;5074177;28;20219;-74
2021/11/08 04:14:06;;;;;;;0.80;0.40;;;7.60;99.90;;;;;;5074074;28;20181;-74
2021/11/08 04:16:34;;;;;;;0.80;0.60;;;7.70;99.90;;;;;;5073997;28;20293;-74
2021/11/08 04:19:04;;;;;;;0.90;0.60;;;7.70;99.90;;;;;;5074025;28;20200;-74
2021/11/08 04:21:35;;;;;;;0.80;0.40;;;7.60;99.90;;;;;;5056060;28;20228;-74
2021/11/08 04:24:04;;;;;;;0.80;0.50;;;7.70;99.90;;;;;;5073862;28;20218;-74
2021/11/08 04:26:34;;;;;;;0.80;0.50;;;7.60;99.90;;;;;;5073957;28;20180;-75
2021/11/08 04:29:04;;;;;;;0.90;0.60;;;7.70;99.90;;;;;;5075608;28;20176;-75
2021/11/08 04:31:35;;;;;;;0.80;0.50;;;7.70;99.90;;;;;;5073742;28;20212;-77
2021/11/08 04:34:12;;;;;;;0.80;0.50;;;7.70;99.90;;;;;;5073922;28;20187;-78
2021/11/08 04:36:56;;;;;;;1.00;0.60;;;7.70;99.90;;;;;;5073734;28;20203;-77
2021/11/08 04:39:30;;;;;;;2.45;0.60;;;7.70;99.90;;;;;;5073960;28;20211;-77
2021/11/08 04:42:03;;;;;;;0.80;0.50;;;7.70;99.90;;;;;;5073952;28;20207;-76
2021/11/08 04:44:46;;;;;;;0.80;0.40;;;7.70;99.90;;;;;;5079473;28;20246;-75
2021/11/08 04:50:10;;;;;;;4.10;1.00;;;7.70;99.90;;;;;;5051622;28;20203;-74
2021/11/08 04:52:58;;;;;;;1.20;0.70;;;7.80;99.90;;;;;;5082355;28;20269;-74
2021/11/08 04:55:40;;;;;;;0.80;0.50;;;7.80;99.90;;;;;;5083007;28;20234;-77
2021/11/08 04:58:59;;;;;;;0.80;0.50;;;7.80;99.90;;;;;;5082062;28;20196;-77
2021/11/08 05:21:19;;;;;;;0.80;0.40;;;7.90;99.90;;;;;;5072797;28;20211;-75
2021/11/08 05:32:01;;;;;;;0.80;0.50;;;8.00;99.90;;;;;;5073393;28;20211;-76
2021/11/08 05:34:29;;;;;;;0.80;0.50;;;8.00;99.90;;;;;;5073235;28;20187;-75
2021/11/08 05:36:59;;;;;;;0.80;0.50;;;8.00;99.90;;;;;;5072212;28;20184;-76
2021/11/08 05:39:27;;;;;;;0.80;0.50;;;8.00;99.90;;;;;;5072250;28;20199;-76
2021/11/08 05:41:56;;;;;;;1.00;0.80;;;8.00;99.90;;;;;;5073068;28;20560;-77
2021/11/08 05:44:24;;;;;;;0.80;0.50;;;8.00;99.90;;;;;;5072652;28;20176;-76
2021/11/08 05:46:52;;;;;;;0.90;0.60;;;8.10;99.90;;;;;;5072386;28;20577;-75
2021/11/08 05:49:21;;;;;;;0.80;0.50;;;8.10;99.90;;;;;;5072975;28;20638;-75
2021/11/08 05:51:49;;;;;;;0.80;0.40;;;8.00;99.90;;;;;;5072227;28;20218;-77
2021/11/08 05:54:21;;;;;;;0.80;0.50;;;8.00;99.90;;;;;;5072392;28;20203;-76
2021/11/08 05:57:05;;;;;;;2.08;0.65;;;8.00;99.90;;;;;;5072218;28;20503;-76
2021/11/08 06:49:45;;;;;;;1.00;0.68;;;8.40;99.90;;;;;;5075917;28;20196;-76
2021/11/08 06:52:14;;;;;;;0.80;0.50;;;8.40;99.90;;;;;;5075181;28;20294;-76
2021/11/08 06:54:45;;;;;;;0.80;0.50;;;8.40;99.90;;;;;;5075402;28;20173;-77
2021/11/08 06:57:15;;;;;;;0.80;0.40;;;8.40;99.90;;;;;;5073802;28;20242;-76
2021/11/08 06:59:47;;;;;;;2.17;0.60;;;8.50;99.90;;;;;;5074985;28;20177;-76
2021/11/08 07:02:17;;;;;;;0.80;0.50;;;8.50;99.90;;;;;;5075808;28;20212;-76
2021/11/08 07:04:45;;;;;;;0.80;0.40;;;8.60;99.90;;;;;;5076282;28;20181;-77
2021/11/08 07:07:14;;;;;;;0.90;0.70;;;8.70;99.90;;;;;;5077123;28;20184;-77
2021/11/08 07:09:43;;;;;;;0.80;0.40;;;8.70;99.90;;;;;;5076342;28;20184;-77
2021/11/08 07:12:12;;;;;;;0.80;0.52;;;8.60;99.90;;;;;;5094885;22;20230;-64
2021/11/08 07:14:41;;;;;;;0.80;0.50;;;8.60;99.90;;;;;;5075489;28;20582;-64
2021/11/08 07:17:11;;;;;;;0.93;0.70;;;8.70;99.90;;;;;;5073627;28;20229;-64
2021/11/08 07:19:39;;;;;;;0.90;0.60;;;8.70;99.90;;;;;;5074182;28;20657;-64
2021/11/08 07:22:07;;;;;;;0.80;0.50;;;8.70;99.90;;;;;;5073529;28;20204;-64
2021/11/08 07:24:36;;;;;;;0.80;0.45;;;8.70;99.90;;;;;;5074297;28;20195;-63
2021/11/08 07:27:04;;;;;;;0.90;0.65;;;8.70;99.90;;;;;;5073714;28;20188;-64
2021/11/08 07:29:36;;;;;;;1.00;0.90;;;8.70;99.90;;;;;;5055250;28;20558;-65
2021/11/08 07:32:05;;;;;;;0.80;0.50;;;8.80;99.90;;;;;;5073621;28;20180;-65
2021/11/08 07:34:34;;;;;;;0.80;0.50;;;8.80;99.90;;;;;;5073748;28;20208;-65
2021/11/08 07:37:03;;;;;;;0.80;0.50;;;8.80;99.90;;;;;;5073438;28;20188;-65
2021/11/08 07:39:31;;;;;;;0.80;0.40;;;8.70;99.90;;;;;;5073453;28;20257;-65
2021/11/08 07:42:00;;;;;;;0.80;0.50;;;8.70;99.90;;;;;;5073207;28;20204;-64
2021/11/08 07:44:28;;;;;;;0.80;0.40;;;8.70;99.90;;;;;;5073439;28;20237;-65
2021/11/08 07:46:57;;;;;;;0.80;0.50;;;8.80;99.90;;;;;;5073587;28;20622;-64
2021/11/08 07:49:25;;;;;;;0.90;0.50;;;8.80;99.90;;;;;;5073177;28;20206;-65
2021/11/08 07:51:54;;;;;;;0.80;0.40;;;8.80;99.90;;;;;;5073038;28;20529;-65
2021/11/08 07:54:24;;;;;;;0.80;0.50;;;8.80;99.90;;;;;;5073285;28;20176;-65
2021/11/08 07:56:52;;;;;;;0.80;0.50;;;8.80;99.90;;;;;;5069072;28;20193;-65
2021/11/08 07:59:20;;;;;;;2.70;1.33;;;8.90;99.90;;;;;;5052830;28;20193;-65
2021/11/08 08:01:48;;;;;;;0.80;0.50;;;8.90;99.90;;;;;;5050689;28;20291;-65
2021/11/08 08:04:17;;;;;;;0.82;0.63;;;8.90;99.90;;;;;;5037822;28;20254;-64
2021/11/08 08:06:48;;;;;;;1.65;0.50;;;9.00;99.90;;;;;;5052790;28;20653;-65
2021/11/08 08:09:18;;;;;;;0.80;0.50;;;9.00;99.90;;;;;;5052852;28;20181;-64
2021/11/08 08:11:47;;;;;;;0.80;0.45;;;9.10;99.90;;;;;;5052703;28;20200;-66
2021/11/08 08:14:16;;;;;;;0.98;0.60;;;9.20;99.90;;;;;;5053422;28;20227;-65
2021/11/08 08:16:44;;;;;;;1.10;0.90;;;9.30;99.90;;;;;;5052663;28;20193;-65
2021/11/08 08:19:13;;;;;;;1.30;0.50;;;9.40;99.90;;;;;;5052737;28;20196;-65
2021/11/08 08:21:41;;;;;;;0.80;0.40;;;9.30;99.90;;;;;;5052478;28;20192;-65
2021/11/08 08:24:09;;;;;;;0.80;0.50;;;9.30;99.90;;;;;;5052856;28;20249;-65
2021/11/08 08:26:41;;;;;;;0.90;0.50;;;9.50;99.90;;;;;;5052682;28;20419;-65
2021/11/08 08:29:11;;;;;;;0.80;0.50;;;9.50;99.90;;;;;;5052554;28;20185;-65
2021/11/08 08:31:43;;;;;;;1.10;0.70;;;9.50;99.90;;;;;;5052516;28;20181;-65
2021/11/08 08:34:14;;;;;;;0.80;0.43;;;9.50;99.90;;;;;;5052246;28;20231;-65
2021/11/08 08:36:43;;;;;;;0.80;0.50;;;9.50;99.90;;;;;;5034507;28;20242;-65
2021/11/08 08:39:12;;;;;;;0.90;0.60;;;9.50;99.90;;;;;;5051953;28;20184;-65
2021/11/08 08:41:43;;;;;;;0.80;0.50;;;9.70;99.90;;;;;;5051544;28;20241;-65
2021/11/08 08:44:13;;;;;;;1.00;0.63;;;9.70;99.90;;;;;;5051058;28;20212;-65
2021/11/08 08:46:42;;;;;;;1.80;1.45;;;9.70;99.90;;;;;;5040873;28;20209;-65
2021/11/08 08:49:12;;;;;;;0.85;0.55;;;9.70;99.90;;;;;;5043152;28;20288;-64
2021/11/08 08:51:41;;;;;;;0.80;0.40;;;9.70;99.90;;;;;;5051987;28;20492;-64
2021/11/08 08:54:10;;;;;;;0.90;0.50;;;9.70;99.90;;;;;;5051818;28;20212;-65
2021/11/08 08:56:39;;;;;;;1.17;0.63;;;9.50;99.90;;;;;;5052090;28;20215;-65
2021/11/08 08:59:08;;;;;;;0.80;0.50;;;9.40;99.90;;;;;;5052015;28;20526;-64
2021/11/08 09:01:37;;;;;;;0.80;0.50;;;9.40;99.90;;;;;;5051911;28;20685;-65
2021/11/08 09:04:05;;;;;;;0.80;0.40;;;9.50;99.90;;;;;;5052264;28;20205;-65
2021/11/08 09:06:33;;;;;;;1.02;0.80;;;9.60;99.90;;;;;;5052098;28;20208;-66
2021/11/08 09:09:02;;;;;;;0.80;0.52;;;9.50;99.90;;;;;;5051636;28;20196;-64
2021/11/08 09:11:30;;;;;;;0.80;0.50;;;9.60;99.90;;;;;;5051409;28;20584;-64
2021/11/08 09:14:00;;;;;;;4.72;0.75;;;9.50;99.90;;;;;;5051382;28;20212;-64
2021/11/08 09:16:30;;;;;;;0.80;0.50;;;9.40;99.90;;;;;;5051693;28;20310;-64
2021/11/08 09:18:59;;;;;;;0.80;0.40;;;9.40;99.90;;;;;;5051686;28;20180;-64
2021/11/08 09:21:30;;;;;;;0.80;0.50;;;9.40;99.90;;;;;;5051682;28;20266;-65
2021/11/08 09:23:59;;;;;;;0.80;0.47;;;9.50;99.90;;;;;;5051543;28;20216;-65
2021/11/08 09:26:30;;;;;;;1.98;0.85;;;9.50;99.90;;;;;;5033743;28;20189;-65
2021/11/08 09:28:58;;;;;;;0.90;0.68;;;9.50;99.90;;;;;;5051252;28;20185;-64
2021/11/08 09:31:27;;;;;;;0.80;0.50;;;9.50;99.90;;;;;;5033226;28;20181;-64
2021/11/08 09:34:03;;;;;;;0.80;0.43;;;9.50;99.90;;;;;;5051294;28;20538;-65
2021/11/08 09:36:33;;;;;;;1.35;0.88;;;9.50;99.90;;;;;;5051097;28;20176;-66
2021/11/08 09:39:04;;;;;;;1.10;0.63;;;9.70;99.90;;;;;;5051453;28;20184;-65
2021/11/08 09:41:34;;;;;;;0.80;0.50;;;9.60;99.90;;;;;;5051251;28;20226;-63
2021/11/08 09:44:05;;;;;;;4.15;0.85;;;9.70;99.90;;;;;;5051172;28;20569;-64
2021/11/08 09:46:35;;;;;;;0.90;0.60;;;9.80;99.90;;;;;;5051234;28;20177;-65
2021/11/08 09:49:08;;;;;;;0.80;0.40;;;9.90;99.90;;;;;;5051452;28;20431;-65
2021/11/08 09:51:39;;;;;;;0.80;0.50;;;10.00;99.90;;;;;;5055674;28;20280;-65
2021/11/08 09:54:10;;;;;;;0.80;0.50;;;10.00;99.90;;;;;;5040001;28;20243;-65
2021/11/08 09:56:39;;;;;;;0.80;0.40;;;10.10;99.90;;;;;;5038704;28;20462;-64
2021/11/08 09:59:07;;;;;;;0.93;0.83;;;10.10;99.90;;;;;;5020468;28;20435;-65
2021/11/08 10:01:48;;;;;;;0.80;0.50;;;10.00;99.90;;;;;;5037963;28;20545;-65
2021/11/08 10:04:19;;;;;;;0.93;0.53;;;10.00;99.90;;;;;;5037807;28;20439;-65
2021/11/08 10:06:49;;;;;;;0.80;0.50;;;10.00;99.90;;;;;;5037607;28;20412;-65
2021/11/08 10:09:19;;;;;;;2.10;2.00;;;10.10;99.90;;;;;;5037617;28;20819;-65
2021/11/08 10:11:49;;;;;;;1.03;0.60;;;10.00;99.90;;;;;;5037838;28;20443;-64
2021/11/08 10:14:19;;;;;;;1.53;0.87;;;9.90;99.90;;;;;;5037822;28;20487;-64
2021/11/08 10:16:50;;;;;;;1.02;0.70;;;9.90;99.90;;;;;;5037278;28;20435;-65
2021/11/08 10:19:22;;;;;;;1.00;0.60;;;9.80;99.90;;;;;;5037424;28;20228;-65
2021/11/08 10:21:53;;;;;;;0.80;0.40;;;9.80;99.90;;;;;;5037457;28;20845;-65
2021/11/08 10:24:26;;;;;;;0.80;0.50;;;9.90;99.90;;;;;;5037515;28;20189;-64
2021/11/08 10:26:56;;;;;;;0.80;0.50;;;10.00;99.90;;;;;;5037530;28;20527;-65
2021/11/08 10:29:27;;;;;;;1.53;1.10;;;9.90;99.90;;;;;;5037445;28;20174;-65
2021/11/08 10:32:09;;;;;;;0.80;0.50;;;10.00;99.90;;;;;;5037307;28;20932;-66
2021/11/08 10:34:50;;;;;;;0.90;0.70;;;10.30;99.90;;;;;;5037242;28;20933;-64
2021/11/08 10:37:25;;;;;;;1.17;1.07;;;10.40;99.90;;;;;;5037311;28;20428;-65
2021/11/08 10:39:54;;;;;;;0.80;0.50;;;10.40;99.90;;;;;;5037000;28;20457;-65
2021/11/08 10:42:28;;;;;;;0.80;0.50;;;10.40;99.90;;;;;;5036805;28;20547;-65
2021/11/08 10:44:56;;;;;;;0.80;0.40;;;10.50;99.90;;;;;;5037084;28;20433;-65
2021/11/08 10:47:28;;;;;;;0.80;0.50;;;10.60;99.90;;;;;;5036747;28;20428;-65
2021/11/08 10:49:58;;;;;;;0.80;0.50;;;10.70;1.00;;;;;;5037010;28;21002;-65
2021/11/08 10:52:30;;;;;;;1.53;0.60;;;10.90;1.00;;;;;;5037226;28;20444;-65
2021/11/08 10:55:00;;;;;;;2.40;0.60;;;11.00;1.00;;;;;;5037120;28;20844;-65
2021/11/08 10:57:29;;;;;;;0.80;0.50;;;11.30;99.90;;;;;;5036965;28;20443;-64
2021/11/08 11:00:00;;;;;;;0.80;0.50;;;11.40;99.90;;;;;;5037123;28;20470;-63
2021/11/08 11:02:31;;;;;;;1.00;0.60;;;11.30;99.90;;;;;;5035855;28;20579;-64
2021/11/08 11:05:04;;;;;;;0.90;0.50;;;11.10;99.90;;;;;;5036181;28;20486;-65
2021/11/08 11:07:34;;;;;;;0.80;0.50;;;11.20;99.90;;;;;;5053856;28;20444;-65
2021/11/08 11:10:06;;;;;;;0.90;0.50;;;11.20;99.90;;;;;;5034632;28;20432;-65
2021/11/08 11:12:35;;;;;;;1.97;0.93;;;11.20;99.90;;;;;;5015929;28;20460;-64
2021/11/08 11:15:09;;;;;;;0.80;0.40;;;11.20;99.90;;;;;;5033776;28;20396;-65
2021/11/08 11:17:42;;;;;;;0.80;0.50;;;11.00;99.90;;;;;;5033688;28;20444;-66
2021/11/08 11:20:14;;;;;;;0.90;0.50;;;11.20;99.90;;;;;;5033897;28;20404;-65
2021/11/08 11:23:00;;;;;;;0.80;0.50;;;11.20;99.90;;;;;;5033716;28;20494;-64
2021/11/08 11:25:31;;;;;;;0.80;0.50;;;11.30;99.90;;;;;;5033639;28;20420;-65
2021/11/08 11:28:01;;;;;;;0.80;0.40;;;11.40;99.90;;;;;;5015779;28;20490;-65
2021/11/08 11:30:33;;;;;;;1.00;0.70;;;11.60;99.90;;;;;;5033595;28;20448;-65
2021/11/08 11:33:05;;;;;;;0.80;0.50;;;11.60;99.90;;;;;;5033345;28;20519;-64
2021/11/08 11:35:44;;;;;;;0.80;0.50;;;11.60;99.90;;;;;;5033146;28;20537;-65
2021/11/08 11:38:16;;;;;;;1.10;0.57;;;11.50;99.90;;;;;;5033392;28;20872;-65
2021/11/08 11:40:48;;;;;;;2.03;1.23;;;11.30;99.90;;;;;;5033179;28;20408;-65
2021/11/08 11:43:17;;;;;;;0.80;0.50;;;11.20;99.90;;;;;;5033171;28;20470;-63
2021/11/08 11:45:52;;;;;;;0.80;0.40;;;11.20;99.90;;;;;;5033240;28;20507;-64
2021/11/08 11:48:23;;;;;;;0.80;0.40;;;11.40;99.90;;;;;;5033434;28;20527;-64
2021/11/08 11:51:13;;;;;;;0.80;0.50;;;11.50;99.90;;;;;;5033597;28;20602;-64
2021/11/08 11:53:42;;;;;;;0.80;0.50;;;11.40;99.90;;;;;;5032887;28;20455;-64
2021/11/08 11:56:11;;;;;;;0.80;0.47;;;11.40;99.90;;;;;;5032963;28;20423;-65
2021/11/08 11:58:41;;;;;;;1.00;0.73;;;11.50;99.90;;;;;;5032805;28;20427;-65
2021/11/08 12:01:12;;;;;;;0.80;0.50;;;11.60;99.90;;;;;;5032931;28;20975;-65
2021/11/08 12:03:40;;;;;;;0.80;0.40;;;11.70;99.90;;;;;;5032738;28;21015;-65
2021/11/08 12:06:14;;;;;;;1.83;1.53;;;11.30;99.90;;;;;;5044669;28;20423;-64
2021/11/08 12:08:44;;;;;;;0.80;0.50;;;11.10;99.90;;;;;;5052685;28;20889;-64
2021/11/08 12:11:12;;;;;;;0.80;0.50;;;11.00;99.90;;;;;;5052791;28;20424;-66
2021/11/08 12:13:42;;;;;;;0.80;0.50;;;11.00;99.90;;;;;;5052574;28;20438;-62
2021/11/08 12:16:16;;;;;;;0.80;0.40;;;11.00;99.90;;;;;;5052493;28;20400;-66
2021/11/08 12:18:46;;;;;;;0.80;0.50;;;11.10;99.90;;;;;;5052747;28;20423;-64
2021/11/08 12:21:24;;;;;;;1.10;0.70;;;11.20;99.90;;;;;;5052605;28;20419;-64
2021/11/08 12:23:54;;;;;;;0.90;0.60;;;11.40;99.90;;;;;;5052406;28;20546;-64
2021/11/08 12:26:24;;;;;;;0.80;0.40;;;11.40;99.90;;;;;;5052583;28;20806;-64
2021/11/08 12:29:04;;;;;;;0.80;0.40;;;11.40;99.90;;;;;;5052979;28;20893;-65
2021/11/08 12:31:33;;;;;;;0.80;0.50;;;11.50;99.90;;;;;;5052854;28;20407;-64
2021/11/08 12:34:04;;;;;;;5.97;0.90;;;11.40;99.90;;;;;;5052579;28;20493;-65
2021/11/08 12:36:35;;;;;;;0.80;0.50;;;11.40;99.90;;;;;;5052273;28;20423;-64
2021/11/08 12:39:06;;;;;;;0.80;0.50;;;11.50;99.90;;;;;;5053241;28;20982;-64
2021/11/08 12:41:45;;;;;;;0.80;0.60;;;11.40;99.90;;;;;;5052859;28;20437;-65
2021/11/08 12:44:14;;;;;;;1.07;0.53;;;11.30;99.90;;;;;;5053744;28;20533;-65
2021/11/08 12:46:45;;;;;;;0.80;0.40;;;11.20;99.90;;;;;;5053952;28;20967;-65
2021/11/08 12:49:17;;;;;;;1.00;0.83;;;11.20;99.90;;;;;;5054711;28;20416;-65
2021/11/08 12:51:55;;;;;;;0.80;0.40;;;11.00;99.90;;;;;;5060044;28;20475;-64
2021/11/08 12:54:25;;;;;;;1.53;0.70;;;11.00;99.90;;;;;;5061115;28;20491;-64
2021/11/08 12:56:54;;;;;;;0.80;0.50;;;10.90;99.90;;;;;;5060457;28;20423;-65
2021/11/08 12:59:30;;;;;;;0.80;0.40;;;10.90;99.90;;;;;;5059691;28;20425;-65
2021/11/08 13:02:08;;;;;;;4.10;1.20;;;10.80;99.90;;;;;;5058881;28;20446;-65
2021/11/08 13:04:45;;;;;;;0.80;0.40;;;10.70;99.90;;;;;;5060019;28;20763;-65
2021/11/08 13:07:18;;;;;;;0.80;0.40;;;10.70;99.90;;;;;;5060060;28;20414;-64
2021/11/08 13:09:49;;;;;;;2.40;0.60;;;10.70;99.90;;;;;;5041152;28;20497;-64
2021/11/08 13:12:20;;;;;;;2.83;0.70;;;10.80;99.90;;;;;;5070842;22;20542;-65
2021/11/08 13:15:01;;;;;;;0.80;0.50;;;10.90;99.90;;;;;;5083946;28;20430;-67
2021/11/08 13:17:30;;;;;;;0.80;0.50;;;11.10;99.90;;;;;;5070809;28;20411;-66
2021/11/08 13:20:06;;;;;;;1.00;0.80;;;11.30;99.90;;;;;;5069027;28;20426;-67
2021/11/08 13:22:51;;;;;;;0.80;0.40;;;11.40;99.90;;;;;;5070814;28;20449;-67
2021/11/08 13:25:22;;;;;;;1.17;0.90;;;11.50;99.90;;;;;;5071220;28;20825;-67
2021/11/08 13:27:56;;;;;;;0.80;0.40;;;11.40;99.90;;;;;;5070915;28;20479;-67
2021/11/08 13:30:31;;;;;;;0.80;0.40;;;11.40;99.90;;;;;;5070930;28;20426;-65
2021/11/08 13:32:59;;;;;;;0.90;0.70;;;11.40;99.90;;;;;;5070952;28;20809;-66
2021/11/08 13:35:30;;;;;;;1.00;0.50;;;11.40;99.90;;;;;;5070940;28;20660;-66
2021/11/08 13:38:07;;;;;;;1.00;0.50;;;11.30;99.90;;;;;;5070954;28;20396;-66
2021/11/08 13:40:39;;;;;;;1.47;0.90;;;11.20;99.90;;;;;;5070910;28;20564;-66
2021/11/08 13:43:09;;;;;;;1.47;0.50;;;11.10;99.90;;;;;;5071031;28;20434;-67
2021/11/08 13:45:50;;;;;;;0.80;0.40;;;11.00;99.90;;;;;;5070860;28;20462;-66
2021/11/08 13:48:29;;;;;;;0.80;0.40;;;10.90;99.90;;;;;;5071146;28;20813;-66
2021/11/08 13:51:00;;;;;;;0.90;0.50;;;10.90;99.90;;;;;;5070701;28;20407;-67
2021/11/08 13:53:32;;;;;;;0.80;0.40;;;10.90;99.90;;;;;;5070787;28;20537;-66
2021/11/08 13:56:03;;;;;;;0.93;0.57;;;10.90;99.90;;;;;;5070902;28;20802;-66
2021/11/08 13:58:32;;;;;;;0.80;0.50;;;10.90;99.90;;;;;;5071190;28;20422;-65
2021/11/08 14:01:03;;;;;;;0.90;0.60;;;10.90;99.90;;;;;;5070885;28;20991;-65
2021/11/08 14:03:38;;;;;;;2.03;0.70;;;11.00;99.90;;;;;;5070912;28;20414;-67
2021/11/08 14:06:07;;;;;;;0.80;0.50;;;11.10;99.90;;;;;;5070467;28;20436;-65
2021/11/08 14:08:45;;;;;;;2.43;1.40;;;11.20;99.90;;;;;;5063805;28;20434;-65
2021/11/08 14:11:13;;;;;;;0.80;0.40;;;11.10;99.90;;;;;;5050817;28;20746;-65
2021/11/08 14:13:41;;;;;;;1.00;0.70;;;11.00;99.90;;;;;;5052499;28;20977;-68
2021/11/08 14:16:12;;;;;;;0.80;0.40;;;10.90;99.90;;;;;;5070381;28;20438;-68
2021/11/08 14:18:51;;;;;;;0.90;0.50;;;10.90;99.90;;;;;;5070976;28;20450;-68
2021/11/08 14:21:19;;;;;;;2.60;0.60;;;10.90;99.90;;;;;;5070540;28;20403;-67
2021/11/08 14:23:56;;;;;;;1.90;1.70;;;10.90;99.90;;;;;;5070936;28;20483;-69
2021/11/08 14:26:26;;;;;;;0.80;0.40;;;10.90;99.90;;;;;;5070693;28;20397;-68
2021/11/08 14:28:56;;;;;;;0.80;0.50;;;10.80;99.90;;;;;;5071746;28;20472;-66
2021/11/08 14:31:27;;;;;;;0.80;0.50;;;10.80;99.90;;;;;;5070636;28;20457;-69
2021/11/08 14:33:58;;;;;;;0.80;0.43;;;10.80;99.90;;;;;;5070674;28;20481;-68